sensor_id;sensor_type;location;lat;lon;timestamp;P1;durP1;ratioP1;P2;durP2;ratioP2
7707;SDS011;3896;48.758;8.888;2023-12-04T00:01:15;16.70;;;8.40;;
7707;SDS011;3896;48.758;8.888;2023-12-04T00:03:41;11.20;;;6.80;;
7707;SDS011;3896;48.758;8.888;2023-12-04T00:06:07;12.93;;;6.93;;
7707;SDS011;3896;48.758;8.888;2023-12-04T00:08:35;10.03;;;6.33;;
7707;SDS011;3896;48.758;8.888;2023-12-04T00:11:01;11.33;;;6.77;;
7707;SDS011;3896;48.758;8.888;2023-12-04T00:13:26;12.83;;;7.50;;
7707;SDS011;3896;48.758;8.888;2023-12-04T00:15:52;29.77;;;12.90;;
7707;SDS011;3896;48.758;8.888;2023-12-04T00:18:17;17.87;;;8.97;;
7707;SDS011;3896;48.758;8.888;2023-12-04T00:20:43;10.10;;;5.67;;
7707;SDS011;3896;48.758;8.888;2023-12-04T00:23:08;15.17;;;7.00;;
7707;SDS011;3896;48.758;8.888;2023-12-04T00:25:34;10.47;;;5.67;;
7707;SDS011;3896;48.758;8.888;2023-12-04T00:27:59;14.60;;;7.13;;
7707;SDS011;3896;48.758;8.888;2023-12-04T00:30:25;22.17;;;10.93;;
7707;SDS011;3896;48.758;8.888;2023-12-04T00:32:50;14.93;;;8.33;;
7707;SDS011;3896;48.758;8.888;2023-12-04T00:35:16;15.17;;;7.83;;
7707;SDS011;3896;48.758;8.888;2023-12-04T00:37:41;13.83;;;7.93;;
7707;SDS011;3896;48.758;8.888;2023-12-04T00:40:07;12.23;;;7.10;;
7707;SDS011;3896;48.758;8.888;2023-12-04T00:42:33;12.60;;;7.30;;
7707;SDS011;3896;48.758;8.888;2023-12-04T00:44:58;9.73;;;6.03;;
7707;SDS011;3896;48.758;8.888;2023-12-04T00:47:24;9.30;;;6.43;;
7707;SDS011;3896;48.758;8.888;2023-12-04T00:49:50;10.27;;;7.17;;
7707;SDS011;3896;48.758;8.888;2023-12-04T00:52:15;15.97;;;8.33;;
7707;SDS011;3896;48.758;8.888;2023-12-04T00:54:41;13.63;;;6.77;;
7707;SDS011;3896;48.758;8.888;2023-12-04T00:57:06;16.27;;;8.17;;
7707;SDS011;3896;48.758;8.888;2023-12-04T00:59:33;12.27;;;7.37;;
7707;SDS011;3896;48.758;8.888;2023-12-04T01:01:58;13.03;;;7.57;;
7707;SDS011;3896;48.758;8.888;2023-12-04T01:04:24;14.10;;;7.30;;
7707;SDS011;3896;48.758;8.888;2023-12-04T01:06:49;13.07;;;7.87;;
7707;SDS011;3896;48.758;8.888;2023-12-04T01:09:15;13.07;;;7.37;;
7707;SDS011;3896;48.758;8.888;2023-12-04T01:11:40;13.27;;;7.20;;
7707;SDS011;3896;48.758;8.888;2023-12-04T01:14:06;14.83;;;9.07;;
7707;SDS011;3896;48.758;8.888;2023-12-04T01:16:31;14.20;;;8.53;;
7707;SDS011;3896;48.758;8.888;2023-12-04T01:18:57;16.63;;;7.70;;
7707;SDS011;3896;48.758;8.888;2023-12-04T01:21:22;15.73;;;8.03;;
7707;SDS011;3896;48.758;8.888;2023-12-04T01:23:48;12.07;;;7.47;;
7707;SDS011;3896;48.758;8.888;2023-12-04T01:26:13;13.77;;;7.43;;
7707;SDS011;3896;48.758;8.888;2023-12-04T01:28:39;14.97;;;7.87;;
7707;SDS011;3896;48.758;8.888;2023-12-04T01:31:06;12.97;;;7.87;;
7707;SDS011;3896;48.758;8.888;2023-12-04T01:33:31;11.80;;;7.90;;
7707;SDS011;3896;48.758;8.888;2023-12-04T01:35:57;11.53;;;6.53;;
7707;SDS011;3896;48.758;8.888;2023-12-04T01:38:22;9.13;;;6.60;;
7707;SDS011;3896;48.758;8.888;2023-12-04T01:40:48;13.97;;;7.27;;
7707;SDS011;3896;48.758;8.888;2023-12-04T01:43:15;16.83;;;7.77;;
7707;SDS011;3896;48.758;8.888;2023-12-04T01:45:40;15.77;;;7.97;;
7707;SDS011;3896;48.758;8.888;2023-12-04T01:48:06;14.57;;;8.33;;
7707;SDS011;3896;48.758;8.888;2023-12-04T01:50:34;10.70;;;7.07;;
7707;SDS011;3896;48.758;8.888;2023-12-04T01:53:00;14.90;;;7.80;;
7707;SDS011;3896;48.758;8.888;2023-12-04T01:55:27;11.90;;;7.63;;
7707;SDS011;3896;48.758;8.888;2023-12-04T01:57:54;13.40;;;7.97;;
7707;SDS011;3896;48.758;8.888;2023-12-04T02:00:21;13.93;;;6.83;;
7707;SDS011;3896;48.758;8.888;2023-12-04T02:02:47;13.57;;;8.00;;
7707;SDS011;3896;48.758;8.888;2023-12-04T02:05:12;13.73;;;7.03;;
7707;SDS011;3896;48.758;8.888;2023-12-04T02:07:40;12.37;;;7.27;;
7707;SDS011;3896;48.758;8.888;2023-12-04T02:10:06;14.70;;;7.07;;
7707;SDS011;3896;48.758;8.888;2023-12-04T02:12:32;12.53;;;7.03;;
7707;SDS011;3896;48.758;8.888;2023-12-04T02:14:58;12.37;;;6.90;;
7707;SDS011;3896;48.758;8.888;2023-12-04T02:17:24;12.13;;;7.13;;
7707;SDS011;3896;48.758;8.888;2023-12-04T02:19:51;12.93;;;6.90;;
7707;SDS011;3896;48.758;8.888;2023-12-04T02:22:18;13.10;;;6.77;;
7707;SDS011;3896;48.758;8.888;2023-12-04T02:24:44;11.37;;;6.67;;
7707;SDS011;3896;48.758;8.888;2023-12-04T02:27:12;12.10;;;6.80;;
7707;SDS011;3896;48.758;8.888;2023-12-04T02:29:51;9.77;;;5.97;;
7707;SDS011;3896;48.758;8.888;2023-12-04T02:32:21;9.80;;;7.20;;
7707;SDS011;3896;48.758;8.888;2023-12-04T02:34:48;9.27;;;6.00;;
7707;SDS011;3896;48.758;8.888;2023-12-04T02:37:14;12.40;;;7.40;;
7707;SDS011;3896;48.758;8.888;2023-12-04T02:39:41;12.27;;;6.40;;
7707;SDS011;3896;48.758;8.888;2023-12-04T02:42:08;10.63;;;6.40;;
7707;SDS011;3896;48.758;8.888;2023-12-04T02:44:33;10.50;;;6.00;;
7707;SDS011;3896;48.758;8.888;2023-12-04T02:46:59;12.20;;;6.70;;
7707;SDS011;3896;48.758;8.888;2023-12-04T02:49:25;10.83;;;6.60;;
7707;SDS011;3896;48.758;8.888;2023-12-04T02:51:50;11.27;;;6.73;;
7707;SDS011;3896;48.758;8.888;2023-12-04T02:54:16;9.53;;;5.93;;
7707;SDS011;3896;48.758;8.888;2023-12-04T02:56:42;9.10;;;5.70;;
7707;SDS011;3896;48.758;8.888;2023-12-04T02:59:07;12.50;;;6.70;;
7707;SDS011;3896;48.758;8.888;2023-12-04T03:01:33;11.93;;;6.50;;
7707;SDS011;3896;48.758;8.888;2023-12-04T03:03:58;9.73;;;6.33;;
7707;SDS011;3896;48.758;8.888;2023-12-04T03:06:24;11.53;;;5.97;;
7707;SDS011;3896;48.758;8.888;2023-12-04T03:08:49;10.07;;;5.87;;
7707;SDS011;3896;48.758;8.888;2023-12-04T03:11:15;9.67;;;6.30;;
7707;SDS011;3896;48.758;8.888;2023-12-04T03:13:40;11.03;;;6.00;;
7707;SDS011;3896;48.758;8.888;2023-12-04T03:16:06;10.43;;;6.50;;
7707;SDS011;3896;48.758;8.888;2023-12-04T03:18:39;7.77;;;5.23;;
7707;SDS011;3896;48.758;8.888;2023-12-04T03:21:05;10.57;;;6.27;;
7707;SDS011;3896;48.758;8.888;2023-12-04T03:23:31;10.33;;;6.47;;
7707;SDS011;3896;48.758;8.888;2023-12-04T03:25:57;12.73;;;6.60;;
7707;SDS011;3896;48.758;8.888;2023-12-04T03:28:22;10.70;;;6.03;;
7707;SDS011;3896;48.758;8.888;2023-12-04T03:30:48;10.97;;;6.20;;
7707;SDS011;3896;48.758;8.888;2023-12-04T03:33:13;10.50;;;6.50;;
7707;SDS011;3896;48.758;8.888;2023-12-04T03:35:39;11.10;;;6.87;;
7707;SDS011;3896;48.758;8.888;2023-12-04T03:38:04;11.63;;;6.50;;
7707;SDS011;3896;48.758;8.888;2023-12-04T03:40:31;9.70;;;5.93;;
7707;SDS011;3896;48.758;8.888;2023-12-04T03:42:56;9.30;;;5.60;;
7707;SDS011;3896;48.758;8.888;2023-12-04T03:45:22;10.50;;;6.37;;
7707;SDS011;3896;48.758;8.888;2023-12-04T03:47:47;10.50;;;5.87;;
7707;SDS011;3896;48.758;8.888;2023-12-04T03:50:13;10.80;;;6.17;;
7707;SDS011;3896;48.758;8.888;2023-12-04T03:52:38;11.80;;;6.53;;
7707;SDS011;3896;48.758;8.888;2023-12-04T03:55:04;9.37;;;5.10;;
7707;SDS011;3896;48.758;8.888;2023-12-04T03:57:30;12.27;;;6.27;;
7707;SDS011;3896;48.758;8.888;2023-12-04T03:59:56;12.97;;;6.87;;
7707;SDS011;3896;48.758;8.888;2023-12-04T04:02:21;9.97;;;5.57;;
7707;SDS011;3896;48.758;8.888;2023-12-04T04:04:47;10.53;;;6.13;;
7707;SDS011;3896;48.758;8.888;2023-12-04T04:07:15;10.33;;;5.93;;
7707;SDS011;3896;48.758;8.888;2023-12-04T04:09:41;8.23;;;6.03;;
7707;SDS011;3896;48.758;8.888;2023-12-04T04:12:07;9.90;;;6.17;;
7707;SDS011;3896;48.758;8.888;2023-12-04T04:14:32;11.90;;;6.53;;
7707;SDS011;3896;48.758;8.888;2023-12-04T04:16:58;10.47;;;6.33;;
7707;SDS011;3896;48.758;8.888;2023-12-04T04:19:23;12.10;;;6.77;;
7707;SDS011;3896;48.758;8.888;2023-12-04T04:21:49;10.07;;;6.40;;
7707;SDS011;3896;48.758;8.888;2023-12-04T04:24:14;9.33;;;6.37;;
7707;SDS011;3896;48.758;8.888;2023-12-04T04:26:40;9.90;;;5.70;;
7707;SDS011;3896;48.758;8.888;2023-12-04T04:29:05;9.10;;;5.57;;
7707;SDS011;3896;48.758;8.888;2023-12-04T04:31:31;8.10;;;5.67;;
7707;SDS011;3896;48.758;8.888;2023-12-04T04:33:57;9.50;;;5.40;;
7707;SDS011;3896;48.758;8.888;2023-12-04T04:36:22;10.77;;;5.80;;
7707;SDS011;3896;48.758;8.888;2023-12-04T04:38:48;9.10;;;5.67;;
7707;SDS011;3896;48.758;8.888;2023-12-04T04:41:16;11.13;;;6.17;;
7707;SDS011;3896;48.758;8.888;2023-12-04T04:43:42;8.17;;;5.30;;
7707;SDS011;3896;48.758;8.888;2023-12-04T04:46:07;7.03;;;5.03;;
7707;SDS011;3896;48.758;8.888;2023-12-04T04:48:33;10.93;;;5.70;;
7707;SDS011;3896;48.758;8.888;2023-12-04T04:50:58;10.40;;;5.50;;
7707;SDS011;3896;48.758;8.888;2023-12-04T04:53:24;11.33;;;5.97;;
7707;SDS011;3896;48.758;8.888;2023-12-04T04:55:49;10.50;;;5.77;;
7707;SDS011;3896;48.758;8.888;2023-12-04T04:58:18;10.47;;;5.67;;
7707;SDS011;3896;48.758;8.888;2023-12-04T05:00:44;8.50;;;5.33;;
7707;SDS011;3896;48.758;8.888;2023-12-04T05:03:10;8.80;;;5.07;;
7707;SDS011;3896;48.758;8.888;2023-12-04T05:05:36;7.90;;;5.30;;
7707;SDS011;3896;48.758;8.888;2023-12-04T05:08:01;8.23;;;5.37;;
7707;SDS011;3896;48.758;8.888;2023-12-04T05:10:27;9.33;;;6.47;;
7707;SDS011;3896;48.758;8.888;2023-12-04T05:12:52;8.47;;;5.83;;
7707;SDS011;3896;48.758;8.888;2023-12-04T05:15:18;8.07;;;4.90;;
7707;SDS011;3896;48.758;8.888;2023-12-04T05:17:43;6.63;;;4.73;;
7707;SDS011;3896;48.758;8.888;2023-12-04T05:20:09;8.67;;;4.83;;
7707;SDS011;3896;48.758;8.888;2023-12-04T05:22:35;9.73;;;5.40;;
7707;SDS011;3896;48.758;8.888;2023-12-04T05:25:00;7.83;;;4.87;;
7707;SDS011;3896;48.758;8.888;2023-12-04T05:27:26;8.87;;;5.30;;
7707;SDS011;3896;48.758;8.888;2023-12-04T05:29:52;10.07;;;5.47;;
7707;SDS011;3896;48.758;8.888;2023-12-04T05:32:17;9.60;;;5.27;;
7707;SDS011;3896;48.758;8.888;2023-12-04T05:34:43;6.57;;;4.83;;
7707;SDS011;3896;48.758;8.888;2023-12-04T05:37:08;10.30;;;5.83;;
7707;SDS011;3896;48.758;8.888;2023-12-04T05:39:34;9.33;;;5.83;;
7707;SDS011;3896;48.758;8.888;2023-12-04T05:41:59;8.97;;;5.40;;
7707;SDS011;3896;48.758;8.888;2023-12-04T05:44:25;9.07;;;5.70;;
7707;SDS011;3896;48.758;8.888;2023-12-04T05:46:50;10.80;;;5.80;;
7707;SDS011;3896;48.758;8.888;2023-12-04T05:49:17;12.40;;;6.03;;
7707;SDS011;3896;48.758;8.888;2023-12-04T05:51:42;10.67;;;5.30;;
7707;SDS011;3896;48.758;8.888;2023-12-04T05:54:08;7.90;;;5.10;;
7707;SDS011;3896;48.758;8.888;2023-12-04T05:56:34;10.70;;;5.73;;
7707;SDS011;3896;48.758;8.888;2023-12-04T05:58:59;7.70;;;5.70;;
7707;SDS011;3896;48.758;8.888;2023-12-04T06:01:25;10.20;;;6.47;;
7707;SDS011;3896;48.758;8.888;2023-12-04T06:03:50;7.43;;;4.90;;
7707;SDS011;3896;48.758;8.888;2023-12-04T06:06:16;9.50;;;5.17;;
7707;SDS011;3896;48.758;8.888;2023-12-04T06:08:41;8.10;;;5.67;;
7707;SDS011;3896;48.758;8.888;2023-12-04T06:11:07;10.10;;;5.30;;
7707;SDS011;3896;48.758;8.888;2023-12-04T06:13:32;9.90;;;6.07;;
7707;SDS011;3896;48.758;8.888;2023-12-04T06:31:53;9.10;;;5.10;;
7707;SDS011;3896;48.758;8.888;2023-12-04T06:34:19;8.03;;;5.20;;
7707;SDS011;3896;48.758;8.888;2023-12-04T06:36:45;7.73;;;5.17;;
7707;SDS011;3896;48.758;8.888;2023-12-04T06:39:11;10.50;;;5.53;;
7707;SDS011;3896;48.758;8.888;2023-12-04T06:41:38;7.97;;;5.10;;
7707;SDS011;3896;48.758;8.888;2023-12-04T06:44:05;9.07;;;5.53;;
7707;SDS011;3896;48.758;8.888;2023-12-04T06:46:31;5.73;;;4.87;;
7707;SDS011;3896;48.758;8.888;2023-12-04T06:49:01;9.50;;;5.77;;
7707;SDS011;3896;48.758;8.888;2023-12-04T06:51:30;7.77;;;5.17;;
7707;SDS011;3896;48.758;8.888;2023-12-04T06:53:56;10.80;;;5.23;;
7707;SDS011;3896;48.758;8.888;2023-12-04T06:56:21;8.57;;;5.10;;
7707;SDS011;3896;48.758;8.888;2023-12-04T06:58:47;9.10;;;6.10;;
7707;SDS011;3896;48.758;8.888;2023-12-04T07:01:13;7.40;;;5.17;;
7707;SDS011;3896;48.758;8.888;2023-12-04T07:03:38;7.80;;;4.57;;
7707;SDS011;3896;48.758;8.888;2023-12-04T07:06:04;7.40;;;4.53;;
7707;SDS011;3896;48.758;8.888;2023-12-04T07:08:30;7.13;;;5.03;;
7707;SDS011;3896;48.758;8.888;2023-12-04T07:10:55;5.97;;;4.57;;
7707;SDS011;3896;48.758;8.888;2023-12-04T07:13:21;7.47;;;4.37;;
7707;SDS011;3896;48.758;8.888;2023-12-04T07:15:46;7.93;;;4.93;;
7707;SDS011;3896;48.758;8.888;2023-12-04T07:18:12;8.63;;;5.07;;
7707;SDS011;3896;48.758;8.888;2023-12-04T07:20:37;11.23;;;5.97;;
7707;SDS011;3896;48.758;8.888;2023-12-04T07:23:03;12.07;;;6.27;;
7707;SDS011;3896;48.758;8.888;2023-12-04T07:25:29;11.20;;;6.43;;
7707;SDS011;3896;48.758;8.888;2023-12-04T07:27:54;10.97;;;6.47;;
7707;SDS011;3896;48.758;8.888;2023-12-04T07:30:20;10.93;;;6.53;;
7707;SDS011;3896;48.758;8.888;2023-12-04T07:32:46;9.40;;;5.77;;
7707;SDS011;3896;48.758;8.888;2023-12-04T07:35:11;10.17;;;6.00;;
7707;SDS011;3896;48.758;8.888;2023-12-04T07:37:37;7.07;;;5.43;;
7707;SDS011;3896;48.758;8.888;2023-12-04T07:40:03;9.27;;;5.50;;
7707;SDS011;3896;48.758;8.888;2023-12-04T07:42:30;8.33;;;5.50;;
7707;SDS011;3896;48.758;8.888;2023-12-04T07:44:56;12.57;;;5.60;;
7707;SDS011;3896;48.758;8.888;2023-12-04T07:47:22;12.50;;;6.67;;
7707;SDS011;3896;48.758;8.888;2023-12-04T07:49:48;12.20;;;6.47;;
7707;SDS011;3896;48.758;8.888;2023-12-04T07:52:14;9.00;;;5.70;;
7707;SDS011;3896;48.758;8.888;2023-12-04T07:54:39;9.63;;;5.87;;
7707;SDS011;3896;48.758;8.888;2023-12-04T07:57:05;11.27;;;6.33;;
7707;SDS011;3896;48.758;8.888;2023-12-04T07:59:30;10.47;;;5.93;;
7707;SDS011;3896;48.758;8.888;2023-12-04T08:01:56;11.63;;;6.30;;
7707;SDS011;3896;48.758;8.888;2023-12-04T08:04:21;9.30;;;6.50;;
7707;SDS011;3896;48.758;8.888;2023-12-04T08:06:47;12.73;;;6.50;;
7707;SDS011;3896;48.758;8.888;2023-12-04T08:09:12;9.67;;;6.40;;
7707;SDS011;3896;48.758;8.888;2023-12-04T08:11:38;12.27;;;6.60;;
7707;SDS011;3896;48.758;8.888;2023-12-04T08:14:04;9.03;;;6.30;;
7707;SDS011;3896;48.758;8.888;2023-12-04T08:16:30;9.67;;;5.70;;
7707;SDS011;3896;48.758;8.888;2023-12-04T08:18:56;9.63;;;6.73;;
7707;SDS011;3896;48.758;8.888;2023-12-04T08:21:21;8.83;;;5.90;;
7707;SDS011;3896;48.758;8.888;2023-12-04T08:23:47;12.37;;;6.20;;
7707;SDS011;3896;48.758;8.888;2023-12-04T08:26:12;7.83;;;5.37;;
7707;SDS011;3896;48.758;8.888;2023-12-04T08:28:38;13.53;;;6.93;;
7707;SDS011;3896;48.758;8.888;2023-12-04T08:31:07;10.80;;;6.10;;
7707;SDS011;3896;48.758;8.888;2023-12-04T08:33:33;10.17;;;5.93;;
7707;SDS011;3896;48.758;8.888;2023-12-04T08:35:59;12.07;;;6.60;;
7707;SDS011;3896;48.758;8.888;2023-12-04T08:38:25;8.77;;;6.27;;
7707;SDS011;3896;48.758;8.888;2023-12-04T08:40:51;8.97;;;6.00;;
7707;SDS011;3896;48.758;8.888;2023-12-04T08:43:18;9.57;;;5.67;;
7707;SDS011;3896;48.758;8.888;2023-12-04T08:45:44;9.80;;;6.27;;
7707;SDS011;3896;48.758;8.888;2023-12-04T08:48:12;10.63;;;6.33;;
7707;SDS011;3896;48.758;8.888;2023-12-04T08:50:38;11.67;;;6.77;;
7707;SDS011;3896;48.758;8.888;2023-12-04T08:53:03;14.13;;;6.57;;
7707;SDS011;3896;48.758;8.888;2023-12-04T08:55:29;12.57;;;6.33;;
7707;SDS011;3896;48.758;8.888;2023-12-04T08:57:55;9.70;;;6.20;;
7707;SDS011;3896;48.758;8.888;2023-12-04T09:00:20;15.30;;;7.47;;
7707;SDS011;3896;48.758;8.888;2023-12-04T09:02:47;9.87;;;7.03;;
7707;SDS011;3896;48.758;8.888;2023-12-04T09:05:13;16.13;;;7.70;;
7707;SDS011;3896;48.758;8.888;2023-12-04T09:07:39;12.53;;;7.80;;
7707;SDS011;3896;48.758;8.888;2023-12-04T09:10:05;11.63;;;7.20;;
7707;SDS011;3896;48.758;8.888;2023-12-04T09:12:31;12.77;;;7.33;;
7707;SDS011;3896;48.758;8.888;2023-12-04T09:14:56;9.00;;;6.33;;
7707;SDS011;3896;48.758;8.888;2023-12-04T09:17:22;11.50;;;7.13;;
7707;SDS011;3896;48.758;8.888;2023-12-04T09:19:48;13.03;;;7.57;;
7707;SDS011;3896;48.758;8.888;2023-12-04T09:22:13;15.57;;;7.83;;
7707;SDS011;3896;48.758;8.888;2023-12-04T09:24:39;11.23;;;7.23;;
7707;SDS011;3896;48.758;8.888;2023-12-04T09:27:04;11.80;;;7.40;;
7707;SDS011;3896;48.758;8.888;2023-12-04T09:29:32;13.97;;;7.17;;
7707;SDS011;3896;48.758;8.888;2023-12-04T09:31:58;12.03;;;8.13;;
7707;SDS011;3896;48.758;8.888;2023-12-04T09:34:24;11.07;;;7.40;;
7707;SDS011;3896;48.758;8.888;2023-12-04T09:36:50;13.00;;;7.73;;
7707;SDS011;3896;48.758;8.888;2023-12-04T09:39:15;12.67;;;6.90;;
7707;SDS011;3896;48.758;8.888;2023-12-04T09:41:42;13.30;;;6.80;;
7707;SDS011;3896;48.758;8.888;2023-12-04T09:44:08;13.93;;;7.23;;
7707;SDS011;3896;48.758;8.888;2023-12-04T09:46:35;11.53;;;7.10;;
7707;SDS011;3896;48.758;8.888;2023-12-04T09:49:00;11.63;;;6.57;;
7707;SDS011;3896;48.758;8.888;2023-12-04T09:51:27;12.40;;;7.27;;
7707;SDS011;3896;48.758;8.888;2023-12-04T09:53:53;9.47;;;6.50;;
7707;SDS011;3896;48.758;8.888;2023-12-04T09:56:22;10.30;;;6.60;;
7707;SDS011;3896;48.758;8.888;2023-12-04T09:58:50;9.03;;;6.23;;
7707;SDS011;3896;48.758;8.888;2023-12-04T10:01:22;12.20;;;6.47;;
7707;SDS011;3896;48.758;8.888;2023-12-04T10:03:48;11.17;;;5.97;;
7707;SDS011;3896;48.758;8.888;2023-12-04T10:06:15;12.87;;;6.43;;
7707;SDS011;3896;48.758;8.888;2023-12-04T10:08:44;10.90;;;6.20;;
7707;SDS011;3896;48.758;8.888;2023-12-04T10:11:10;9.70;;;6.83;;
7707;SDS011;3896;48.758;8.888;2023-12-04T10:13:37;9.53;;;6.53;;
7707;SDS011;3896;48.758;8.888;2023-12-04T10:16:05;12.67;;;6.93;;
7707;SDS011;3896;48.758;8.888;2023-12-04T10:18:31;10.03;;;6.50;;
7707;SDS011;3896;48.758;8.888;2023-12-04T10:20:57;9.33;;;6.33;;
7707;SDS011;3896;48.758;8.888;2023-12-04T10:23:42;10.20;;;6.23;;
7707;SDS011;3896;48.758;8.888;2023-12-04T10:26:09;9.90;;;6.03;;
7707;SDS011;3896;48.758;8.888;2023-12-04T10:28:35;9.93;;;6.57;;
7707;SDS011;3896;48.758;8.888;2023-12-04T10:31:01;8.97;;;5.53;;
7707;SDS011;3896;48.758;8.888;2023-12-04T10:33:28;10.77;;;6.13;;
7707;SDS011;3896;48.758;8.888;2023-12-04T10:35:55;9.80;;;6.70;;
7707;SDS011;3896;48.758;8.888;2023-12-04T10:38:21;11.77;;;6.37;;
7707;SDS011;3896;48.758;8.888;2023-12-04T10:40:46;9.37;;;5.40;;
7707;SDS011;3896;48.758;8.888;2023-12-04T10:45:42;10.13;;;6.47;;
7707;SDS011;3896;48.758;8.888;2023-12-04T10:48:09;8.13;;;6.03;;
7707;SDS011;3896;48.758;8.888;2023-12-04T10:50:36;8.97;;;5.93;;
7707;SDS011;3896;48.758;8.888;2023-12-04T10:53:05;9.03;;;5.30;;
7707;SDS011;3896;48.758;8.888;2023-12-04T10:55:32;8.43;;;5.53;;
7707;SDS011;3896;48.758;8.888;2023-12-04T10:58:06;7.40;;;5.27;;
7707;SDS011;3896;48.758;8.888;2023-12-04T11:00:34;8.53;;;5.80;;
7707;SDS011;3896;48.758;8.888;2023-12-04T11:03:06;9.80;;;5.60;;
7707;SDS011;3896;48.758;8.888;2023-12-04T11:05:35;7.77;;;5.80;;
7707;SDS011;3896;48.758;8.888;2023-12-04T11:08:03;10.57;;;6.50;;
7707;SDS011;3896;48.758;8.888;2023-12-04T11:10:43;8.90;;;5.70;;
7707;SDS011;3896;48.758;8.888;2023-12-04T11:13:27;9.17;;;5.53;;
7707;SDS011;3896;48.758;8.888;2023-12-04T11:15:56;12.57;;;6.83;;
7707;SDS011;3896;48.758;8.888;2023-12-04T11:18:26;10.30;;;6.23;;
7707;SDS011;3896;48.758;8.888;2023-12-04T11:20:59;8.83;;;5.90;;
7707;SDS011;3896;48.758;8.888;2023-12-04T11:23:31;10.50;;;6.63;;
7707;SDS011;3896;48.758;8.888;2023-12-04T11:25:57;11.40;;;6.73;;
7707;SDS011;3896;48.758;8.888;2023-12-04T11:28:25;12.63;;;7.17;;
7707;SDS011;3896;48.758;8.888;2023-12-04T11:30:52;8.97;;;6.07;;
7707;SDS011;3896;48.758;8.888;2023-12-04T11:33:19;10.83;;;6.30;;
7707;SDS011;3896;48.758;8.888;2023-12-04T11:35:45;14.93;;;7.60;;
7707;SDS011;3896;48.758;8.888;2023-12-04T11:38:14;9.80;;;6.40;;
7707;SDS011;3896;48.758;8.888;2023-12-04T11:40:40;14.27;;;6.43;;
7707;SDS011;3896;48.758;8.888;2023-12-04T11:43:26;10.20;;;6.50;;
7707;SDS011;3896;48.758;8.888;2023-12-04T11:45:53;9.53;;;6.20;;
7707;SDS011;3896;48.758;8.888;2023-12-04T11:48:22;10.50;;;6.77;;
7707;SDS011;3896;48.758;8.888;2023-12-04T11:50:51;12.37;;;6.10;;
7707;SDS011;3896;48.758;8.888;2023-12-04T11:53:16;7.67;;;5.17;;
7707;SDS011;3896;48.758;8.888;2023-12-04T11:55:42;8.43;;;5.30;;
7707;SDS011;3896;48.758;8.888;2023-12-04T11:58:08;6.80;;;4.83;;
7707;SDS011;3896;48.758;8.888;2023-12-04T12:00:35;8.73;;;5.20;;
7707;SDS011;3896;48.758;8.888;2023-12-04T12:03:03;9.73;;;5.70;;
7707;SDS011;3896;48.758;8.888;2023-12-04T12:05:31;8.60;;;5.23;;
7707;SDS011;3896;48.758;8.888;2023-12-04T12:08:05;9.53;;;6.40;;
7707;SDS011;3896;48.758;8.888;2023-12-04T12:10:32;7.80;;;5.77;;
7707;SDS011;3896;48.758;8.888;2023-12-04T12:12:58;9.67;;;5.67;;
7707;SDS011;3896;48.758;8.888;2023-12-04T12:15:24;12.83;;;7.00;;
7707;SDS011;3896;48.758;8.888;2023-12-04T12:17:50;10.97;;;5.80;;
7707;SDS011;3896;48.758;8.888;2023-12-04T12:20:18;11.37;;;6.97;;
7707;SDS011;3896;48.758;8.888;2023-12-04T12:22:45;12.83;;;7.13;;
7707;SDS011;3896;48.758;8.888;2023-12-04T12:25:13;12.07;;;6.90;;
7707;SDS011;3896;48.758;8.888;2023-12-04T12:27:38;11.13;;;6.60;;
7707;SDS011;3896;48.758;8.888;2023-12-04T12:30:05;13.63;;;7.17;;
7707;SDS011;3896;48.758;8.888;2023-12-04T12:32:32;13.20;;;7.03;;
7707;SDS011;3896;48.758;8.888;2023-12-04T12:35:01;8.87;;;6.03;;
7707;SDS011;3896;48.758;8.888;2023-12-04T12:37:28;8.97;;;5.57;;
7707;SDS011;3896;48.758;8.888;2023-12-04T12:39:54;11.93;;;6.27;;
7707;SDS011;3896;48.758;8.888;2023-12-04T12:42:26;9.80;;;5.90;;
7707;SDS011;3896;48.758;8.888;2023-12-04T12:44:53;13.10;;;6.47;;
7707;SDS011;3896;48.758;8.888;2023-12-04T12:47:20;9.57;;;5.50;;
7707;SDS011;3896;48.758;8.888;2023-12-04T12:49:47;9.30;;;6.00;;
7707;SDS011;3896;48.758;8.888;2023-12-04T12:52:13;8.40;;;5.20;;
7707;SDS011;3896;48.758;8.888;2023-12-04T12:54:40;9.50;;;5.17;;
7707;SDS011;3896;48.758;8.888;2023-12-04T12:57:06;9.83;;;5.40;;
7707;SDS011;3896;48.758;8.888;2023-12-04T12:59:32;9.20;;;5.40;;
7707;SDS011;3896;48.758;8.888;2023-12-04T13:01:58;8.73;;;5.17;;
7707;SDS011;3896;48.758;8.888;2023-12-04T13:04:34;11.50;;;6.00;;
7707;SDS011;3896;48.758;8.888;2023-12-04T13:07:00;8.43;;;5.70;;
7707;SDS011;3896;48.758;8.888;2023-12-04T13:09:27;10.07;;;5.70;;
7707;SDS011;3896;48.758;8.888;2023-12-04T13:11:53;11.17;;;5.70;;
7707;SDS011;3896;48.758;8.888;2023-12-04T13:14:19;11.60;;;6.63;;
7707;SDS011;3896;48.758;8.888;2023-12-04T13:16:44;9.50;;;6.23;;
7707;SDS011;3896;48.758;8.888;2023-12-04T13:19:10;10.93;;;6.30;;
7707;SDS011;3896;48.758;8.888;2023-12-04T13:21:35;12.17;;;7.07;;
7707;SDS011;3896;48.758;8.888;2023-12-04T13:24:01;10.87;;;7.47;;
7707;SDS011;3896;48.758;8.888;2023-12-04T13:26:31;10.80;;;6.90;;
7707;SDS011;3896;48.758;8.888;2023-12-04T13:28:58;10.30;;;7.30;;
7707;SDS011;3896;48.758;8.888;2023-12-04T13:31:24;9.43;;;6.10;;
7707;SDS011;3896;48.758;8.888;2023-12-04T13:33:49;13.23;;;6.87;;
7707;SDS011;3896;48.758;8.888;2023-12-04T13:36:15;8.30;;;5.67;;
7707;SDS011;3896;48.758;8.888;2023-12-04T13:38:40;9.73;;;6.33;;
7707;SDS011;3896;48.758;8.888;2023-12-04T13:41:06;12.07;;;6.60;;
7707;SDS011;3896;48.758;8.888;2023-12-04T13:44:04;10.63;;;5.77;;
7707;SDS011;3896;48.758;8.888;2023-12-04T13:46:29;9.73;;;6.03;;
7707;SDS011;3896;48.758;8.888;2023-12-04T13:48:55;8.63;;;5.80;;
7707;SDS011;3896;48.758;8.888;2023-12-04T13:51:21;10.67;;;6.40;;
7707;SDS011;3896;48.758;8.888;2023-12-04T13:53:47;8.57;;;5.60;;
7707;SDS011;3896;48.758;8.888;2023-12-04T13:56:14;9.10;;;6.00;;
7707;SDS011;3896;48.758;8.888;2023-12-04T13:58:46;8.27;;;5.50;;
7707;SDS011;3896;48.758;8.888;2023-12-04T14:01:14;9.57;;;5.43;;
7707;SDS011;3896;48.758;8.888;2023-12-04T14:03:43;7.00;;;4.10;;
7707;SDS011;3896;48.758;8.888;2023-12-04T14:06:09;9.30;;;4.10;;
7707;SDS011;3896;48.758;8.888;2023-12-04T14:08:35;6.13;;;4.00;;
7707;SDS011;3896;48.758;8.888;2023-12-04T14:11:02;4.73;;;3.43;;
7707;SDS011;3896;48.758;8.888;2023-12-04T14:13:28;6.40;;;3.93;;
7707;SDS011;3896;48.758;8.888;2023-12-04T14:15:54;5.60;;;3.70;;
7707;SDS011;3896;48.758;8.888;2023-12-04T14:18:19;4.17;;;3.07;;
7707;SDS011;3896;48.758;8.888;2023-12-04T14:20:45;4.23;;;3.17;;
7707;SDS011;3896;48.758;8.888;2023-12-04T14:23:11;5.40;;;3.80;;
7707;SDS011;3896;48.758;8.888;2023-12-04T14:25:37;6.07;;;3.70;;
7707;SDS011;3896;48.758;8.888;2023-12-04T14:28:02;8.67;;;4.17;;
7707;SDS011;3896;48.758;8.888;2023-12-04T14:30:28;5.27;;;3.77;;
7707;SDS011;3896;48.758;8.888;2023-12-04T14:32:54;3.57;;;2.70;;
7707;SDS011;3896;48.758;8.888;2023-12-04T14:35:20;4.57;;;3.07;;
7707;SDS011;3896;48.758;8.888;2023-12-04T14:37:46;3.10;;;2.67;;
7707;SDS011;3896;48.758;8.888;2023-12-04T14:40:12;2.93;;;2.43;;
7707;SDS011;3896;48.758;8.888;2023-12-04T14:42:39;6.13;;;2.27;;
7707;SDS011;3896;48.758;8.888;2023-12-04T14:45:05;2.67;;;1.80;;
7707;SDS011;3896;48.758;8.888;2023-12-04T14:47:31;2.90;;;2.50;;
7707;SDS011;3896;48.758;8.888;2023-12-04T14:49:56;5.37;;;3.13;;
7707;SDS011;3896;48.758;8.888;2023-12-04T14:52:22;4.37;;;3.03;;
7707;SDS011;3896;48.758;8.888;2023-12-04T14:54:48;3.37;;;2.73;;
7707;SDS011;3896;48.758;8.888;2023-12-04T14:57:33;3.77;;;2.87;;
7707;SDS011;3896;48.758;8.888;2023-12-04T15:00:05;4.20;;;2.77;;
7707;SDS011;3896;48.758;8.888;2023-12-04T15:02:49;4.43;;;3.37;;
7707;SDS011;3896;48.758;8.888;2023-12-04T15:05:38;6.10;;;3.20;;
7707;SDS011;3896;48.758;8.888;2023-12-04T15:08:38;3.60;;;3.10;;
7707;SDS011;3896;48.758;8.888;2023-12-04T15:11:23;5.80;;;4.07;;
7707;SDS011;3896;48.758;8.888;2023-12-04T15:14:07;6.23;;;3.80;;
7707;SDS011;3896;48.758;8.888;2023-12-04T15:16:51;6.93;;;4.30;;
7707;SDS011;3896;48.758;8.888;2023-12-04T15:19:25;4.67;;;3.17;;
7707;SDS011;3896;48.758;8.888;2023-12-04T15:22:00;5.60;;;4.07;;
7707;SDS011;3896;48.758;8.888;2023-12-04T15:24:26;5.43;;;4.30;;